MET'MAP v2.0
soon released !

Expected late october,
this new version will be
more efficient, smarter,
and hosted on a brand new
server x3 powerfull...
...and still free !


Not compatible ?
Try the mobile version !

LOG IN : | Subscribe | Disclaimer | Who is Orbifly ? |
ICAO code :
Legend : VFR Marginal VFR IFR Intensive IFR Very Intensive IFR
Visi :
Ceiling :
>= 8 km
>= 3000ft
5 to 8 km
1000 to 3000 ft
1500m to 5 km
500 to 1000 ft
800 to 1500m
200 to 500 ft
< 800m
< 200 ft

METAR - LPAR Alverca Air Base - 01 Mar 2021 11:58 UTC - Data Source NOAA   


- Airport Elevation : 11 ft
- No reported NOTAMs.


LPAR - Alverca Air Base

Latest METAR recorded : 2015/04/24 12:00 LPAR 241200Z 18008KT 9999 FEW012 BKN018 19/16 Q1016
TAF AMD TAF LPAR
Valid from the 01 at 09:00 until the 01 at 18:00 UTC


010901Z 0109/0118 VRB02KT 3000 BCFG OVC003
BECMG 0110/0113 9999 NSW SCT035
PROB30
TEMPO 0114/0118 4000 SHRA BKN025 SCT030CB
BECMG 0116/0118 32008KT

Source NOAA


MET'MAP, your aeronautical weather chart ! - Copyright ORBIFLY December 2007

Programming & Development : Alexandra Zaïnal
Co-Developer : Marc-Olivier Méhu
Technical & hardware support : Manuel Goepfert
Concept & Financing : Baudouin d'Aumeries